Galesburg, IL (61401)

1:19 PM CDT on April 29, 2017 (GMT -0500)
N9VPV | | Change Station
Active Advisory: Flood Warning

Elev 777 ft 40.95 °N, 90.39 °W | Updated 3 minutes ago

Rain
Rain
42.0 °F
Feels Like 35 °F
N
12.0
Wind Variable Wind from NNE
Gusts 13.0 mph

Today
High -- | Low -- °F
--% Chance of Precip.
Yesterday
High -- | Low -- °F
Precip. -- in
Pressure 29.99 in
Visibility 10.0 miles
Clouds Mostly Cloudy 1400 ft
Mostly Cloudy 1800 ft
Overcast 2900 ft
Windchill 35 °F
Dew Point 40 °F
Humidity 91%
Rainfall 0.00 in
Snow Depth Not available.
6:01 AM 7:56 PM
Waxing Crescent, 15% visible
METAR KGBG 291755Z AUTO 04024G29KT 10SM -RA BKN014 BKN018 OVC029 06/04 A2999 RMK AO2 LTG DSNT SW P0003 60012 T00570043 10085 20057
Pressure 29.99 in
Visibility 10.0 miles
Clouds Mostly Cloudy 1400 ft
Mostly Cloudy 1800 ft
Overcast 2900 ft
Windchill 35 °F
Dew Point 40 °F
Humidity 91%
Rainfall 0.00 in
Snow Depth Not available.
6:01 AM 7:56 PM
Waxing Crescent, 15% visible
METAR KGBG 291755Z AUTO 04024G29KT 10SM -RA BKN014 BKN018 OVC029 06/04 A2999 RMK AO2 LTG DSNT SW P0003 60012 T00570043 10085 20057

Get Your Daily Forecast Email!

Thanks for signing up!

Be on the lookout for a verification email in your inbox.

You'll start receiving severe weather alerts in your inbox..

×

10-Day Weather Forecast

Almanac

Astronomy

Apr. 29, 2017 Rise Set
Actual Time
Civil Twilight
Nautical Twilight
Astronomical Twilight
Moon
Length of Visible Light
Length of Day
Tomorrow will be .
, % of the Moon is Illuminated

Today's Extremes

State Highs State Lows

Community

WunderPhotos

WunderBlog® & News

Nearby

Air Quality

  Air Quality AQ Index Pollutant
Not available.

Snow Depth

Station Depth Elevation

Earthquake Activity

City Distance Mag. Time & Date
Minimum magnitude displayed is 2.5.

Coastal Water Temperatures

Place Temperature

Stations

Nearby Weather Stations

Station Location Temp. Windchill Dew Point Humidity Wind Precip. Elev Updated Type
                   

Watches & Warnings

Flood Warning
Issued: 10:48 AM CDT Apr. 29, 2017 – National Weather Service

The Flood Warning continues for
the spoon river at London Mills.
* From Sunday evening until late Wednesday night.
* At 945 am Saturday the stage was 6.3 feet.
* Flood stage is 15.0 feet.
* Minor flooding is forecast.
* Forecast... rise above flood stage by tomorrow evening and continue
to rise to near 18.4 feet by early Tuesday morning.The river will
fall below flood stage by Wednesday evening.



                  Fld observed forecast 6am
location stg stg day time sun Mon Tue

Spoon river
London Mills 15 6.3 Sat 10 am 9.1 16.9 18.3



Lat... Lon 4081 9020 4079 9012 4070 9024 4058 9027
      4059 9036 4071 9032